Nelson Lagoon, Alaska
Current Conditions -  °F | °C
As of 2:56 AM on Saturday 25 Oct 2014 (Local Time) from PAOU Reporting Station
Light Rain Light Rain  
Wind Chill: 35°   Ceiling: Unl
Heat Index: 39°   Visibility: NA
Dew Point: 37°   Wind: 6mph
Humidity: 93%   Direction: 140°SE
Pressure: 29.99"   Gusts: NA
Location:  56°N, 161.2°W
Report Text: PAOU 251056Z AUTO 14005KT -RA CLR 04/03 A2999 RMK AO2 TSNO T00380027 RAB39 P0001 SLP160 $
Loading
Personal Weather Stations






























Interactive Weather Map
Tropical Storm Tracking
New forecast layout! Learn more

10-Day Weather Forecast

Advertisements
Track Severe Weather on mobile